createdAt,value
2023-01-09T00:00:32.809Z,94.40
2023-01-09T00:01:32.664Z,94.40
2023-01-09T00:02:32.644Z,94.60
2023-01-09T00:03:32.530Z,94.71
2023-01-09T00:04:32.452Z,94.30
2023-01-09T00:05:32.382Z,94.09
2023-01-09T00:06:32.331Z,94.09
2023-01-09T00:07:32.235Z,94.09
2023-01-09T00:08:32.232Z,94.30
2023-01-09T00:09:32.117Z,94.30
2023-01-09T00:10:32.038Z,93.88
2023-01-09T00:11:32.043Z,93.99
2023-01-09T00:12:31.919Z,93.95
2023-01-09T00:13:31.849Z,94.15
2023-01-09T00:14:31.820Z,94.36
2023-01-09T00:15:31.763Z,93.99
2023-01-09T00:16:31.781Z,93.74
2023-01-09T00:17:31.655Z,93.99
2023-01-09T00:18:31.612Z,93.95
2023-01-09T00:19:31.464Z,94.36
2023-01-09T00:20:31.496Z,94.36
2023-01-09T00:21:31.381Z,94.30
2023-01-09T00:22:31.346Z,94.36
2023-01-09T00:23:31.256Z,94.67
2023-01-09T00:24:31.235Z,94.60
2023-01-09T00:25:31.132Z,94.81
2023-01-09T00:26:31.120Z,94.67
2023-01-09T00:27:30.970Z,94.71
2023-01-09T00:28:30.952Z,95.02
2023-01-09T00:29:30.862Z,95.39
2023-01-09T00:30:30.835Z,95.39
2023-01-09T00:31:31.576Z,95.28
2023-01-09T00:32:30.655Z,95.08
2023-01-09T00:33:30.600Z,95.08
2023-01-09T00:34:30.565Z,95.59
2023-01-09T00:35:30.469Z,95.59
2023-01-09T00:36:30.431Z,95.59
2023-01-09T00:37:30.350Z,95.28
2023-01-09T00:38:30.322Z,95.49
2023-01-09T00:39:30.268Z,95.90
2023-01-09T00:40:30.186Z,95.80
2023-01-09T00:41:30.085Z,95.64
2023-01-09T00:42:30.038Z,95.90
2023-01-09T00:43:29.962Z,96.00
2023-01-09T00:44:30.177Z,95.95
2023-01-09T00:45:29.869Z,96.15
2023-01-09T00:46:29.807Z,96.25
2023-01-09T00:47:29.711Z,96.15
2023-01-09T00:48:29.672Z,96.25
2023-01-09T00:49:29.591Z,96.15
2023-01-09T00:50:50.513Z,95.84
2023-01-09T00:51:29.481Z,95.84
2023-01-09T00:52:29.399Z,96.36
2023-01-09T00:53:29.336Z,96.67
2023-01-09T00:54:29.308Z,96.67
2023-01-09T00:55:29.169Z,97.18
2023-01-09T00:56:29.451Z,97.18
2023-01-09T00:57:29.149Z,97.28
2023-01-09T00:58:29.045Z,97.49
2023-01-09T00:59:28.946Z,97.60
2023-01-09T01:00:28.955Z,97.69
2023-01-09T01:01:28.961Z,97.90
2023-01-09T01:02:29.121Z,98.00
2023-01-09T01:03:28.745Z,98.32
2023-01-09T01:04:28.671Z,98.62
2023-01-09T01:05:28.641Z,98.72
2023-01-09T01:06:28.574Z,98.83
2023-01-09T01:07:28.447Z,98.93
2023-01-09T01:08:49.419Z,98.93
2023-01-09T01:09:28.367Z,98.83
2023-01-09T01:10:28.273Z,99.04
2023-01-09T01:11:28.241Z,99.04
2023-01-09T01:12:28.212Z,99.24
2023-01-09T01:13:28.103Z,99.49
2023-01-09T01:14:28.042Z,99.96
2023-01-09T01:15:27.955Z,99.99
2023-01-09T01:16:27.992Z,99.99
2023-01-09T01:17:27.835Z,99.99
2023-01-09T01:18:27.736Z,99.99
2023-01-09T01:19:27.704Z,99.99
2023-01-09T01:20:27.623Z,99.99
2023-01-09T01:21:27.543Z,99.99
2023-01-09T01:22:27.480Z,99.99
2023-01-09T01:23:27.530Z,99.99
2023-01-09T01:24:27.420Z,99.99
2023-01-09T01:25:27.303Z,99.99
2023-01-09T01:28:06.290Z,99.99
2023-01-09T01:29:07.268Z,99.99
2023-01-09T01:30:07.117Z,99.99
2023-01-09T01:31:07.234Z,99.99
2023-01-09T01:32:07.077Z,99.99
2023-01-09T01:33:07.071Z,99.99
2023-01-09T01:34:06.947Z,99.99
2023-01-09T01:35:06.888Z,99.99
2023-01-09T01:36:06.799Z,99.99
2023-01-09T01:37:06.735Z,99.99
2023-01-09T01:38:06.653Z,99.99
2023-01-09T01:39:06.663Z,99.99
2023-01-09T01:40:06.543Z,99.99
2023-01-09T01:41:06.489Z,99.99
2023-01-09T01:42:06.444Z,99.99
2023-01-09T01:43:07.267Z,99.99
2023-01-09T01:44:06.293Z,99.99
2023-01-09T01:46:45.975Z,99.99
2023-01-09T01:47:46.926Z,99.99
2023-01-09T01:48:46.841Z,99.99
2023-01-09T01:49:46.781Z,99.99
2023-01-09T01:50:46.672Z,99.99
2023-01-09T01:51:46.649Z,99.99
2023-01-09T01:52:46.562Z,99.99
2023-01-09T01:53:46.545Z,99.99
2023-01-09T01:54:46.477Z,99.99
2023-01-09T01:55:46.456Z,99.99
2023-01-09T01:56:46.430Z,99.99
2023-01-09T01:57:46.312Z,99.99
2023-01-09T01:58:46.182Z,99.99
2023-01-09T01:59:46.159Z,99.99
2023-01-09T02:00:46.062Z,99.99
2023-01-09T02:01:46.132Z,99.99
2023-01-09T02:02:46.055Z,99.99
2023-01-09T02:03:45.966Z,99.99
2023-01-09T02:04:45.836Z,99.99
2023-01-09T02:05:45.818Z,99.99
2023-01-09T02:06:45.756Z,99.99
2023-01-09T02:07:45.633Z,99.99
2023-01-09T02:08:45.552Z,99.99
2023-01-09T02:09:45.533Z,99.99
2023-01-09T02:10:45.464Z,99.99
2023-01-09T02:11:45.357Z,99.99
2023-01-09T02:12:45.335Z,99.99
2023-01-09T02:13:45.275Z,99.99
2023-01-09T02:14:45.187Z,99.99
2023-01-09T02:15:45.126Z,99.99
2023-01-09T02:16:45.081Z,99.99
2023-01-09T02:17:45.058Z,99.99
2023-01-09T02:18:44.945Z,99.99
2023-01-09T02:19:44.885Z,99.99
2023-01-09T02:20:44.843Z,99.99
2023-01-09T02:22:53.913Z,99.99
2023-01-09T02:23:54.811Z,99.99
2023-01-09T02:24:54.749Z,99.99
2023-01-09T02:25:54.667Z,99.99
2023-01-09T02:26:54.661Z,99.99
2023-01-09T02:27:54.683Z,99.99
2023-01-09T02:28:54.584Z,99.99
2023-01-09T02:29:54.476Z,99.99
2023-01-09T02:30:54.369Z,99.99
2023-01-09T02:31:54.403Z,99.99
2023-01-09T02:32:54.277Z,99.99
2023-01-09T02:33:54.186Z,99.99
2023-01-09T02:34:54.122Z,99.99
2023-01-09T02:35:54.118Z,99.99
2023-01-09T02:36:54.022Z,99.99
2023-01-09T02:37:53.968Z,99.99
2023-01-09T02:38:53.964Z,99.99
2023-01-09T02:40:14.870Z,99.99
2023-01-09T02:40:53.788Z,99.99
2023-01-09T02:41:53.767Z,99.99
2023-01-09T02:42:53.608Z,99.99
2023-01-09T02:43:53.545Z,99.99
2023-01-09T02:44:53.610Z,99.99
2023-01-09T02:45:53.598Z,99.99
2023-01-09T02:46:53.424Z,99.99
2023-01-09T02:47:53.398Z,99.99
2023-01-09T02:48:53.260Z,99.99
2023-01-09T02:49:53.228Z,99.99
2023-01-09T02:50:53.151Z,99.99
2023-01-09T02:51:53.337Z,99.99
2023-01-09T02:52:53.068Z,99.99
2023-01-09T02:53:52.948Z,99.99
2023-01-09T02:54:52.938Z,99.99
2023-01-09T02:55:52.881Z,99.99
2023-01-09T02:56:52.849Z,99.99
2023-01-09T02:57:52.996Z,99.99
2023-01-09T02:58:52.652Z,99.99
2023-01-09T02:59:54.026Z,99.99
2023-01-09T03:00:52.620Z,99.99
2023-01-09T03:01:52.647Z,99.99
2023-01-09T03:02:52.465Z,99.99
2023-01-09T03:03:52.343Z,99.99
2023-01-09T03:04:52.257Z,99.99
2023-01-09T03:05:52.249Z,99.99
2023-01-09T03:06:52.177Z,99.99
2023-01-09T03:07:52.071Z,99.99
2023-01-09T03:08:52.057Z,99.99
2023-01-09T03:09:52.031Z,99.99
2023-01-09T03:10:51.931Z,99.99
2023-01-09T03:11:51.835Z,99.99
2023-01-09T03:12:51.761Z,99.99
2023-01-09T03:13:51.708Z,99.99
2023-01-09T03:14:51.676Z,99.99
2023-01-09T03:15:51.628Z,99.99
2023-01-09T03:16:51.551Z,99.99
2023-01-09T03:17:51.455Z,99.99
2023-01-09T03:18:51.420Z,99.99
2023-01-09T03:19:51.333Z,99.99
2023-01-09T03:20:51.296Z,99.99
2023-01-09T03:21:51.286Z,99.99
2023-01-09T03:22:51.128Z,99.99
2023-01-09T03:23:51.109Z,99.99
2023-01-09T03:24:50.991Z,99.99
2023-01-09T03:25:50.949Z,99.99
2023-01-09T03:26:50.948Z,99.99
2023-01-09T03:27:50.810Z,99.99
2023-01-09T03:28:50.857Z,99.99
2023-01-09T03:29:50.672Z,99.99
2023-01-09T03:30:50.637Z,99.99
2023-01-09T03:31:50.617Z,99.99
2023-01-09T03:32:50.537Z,99.99
2023-01-09T03:33:50.450Z,99.99
2023-01-09T03:34:50.409Z,99.99
2023-01-09T03:35:50.378Z,99.99
2023-01-09T03:36:50.316Z,99.99
2023-01-09T03:37:50.201Z,99.99
2023-01-09T03:38:50.112Z,99.99
2023-01-09T03:39:50.140Z,99.99
2023-01-09T03:40:49.985Z,99.99
2023-01-09T03:41:49.938Z,99.99
2023-01-09T03:42:49.936Z,99.99
2023-01-09T03:43:49.854Z,99.99
2023-01-09T03:44:49.759Z,99.99
2023-01-09T03:45:49.717Z,99.99
2023-01-09T03:46:49.622Z,99.99
2023-01-09T03:47:51.160Z,99.99
2023-01-09T03:48:49.520Z,99.99
2023-01-09T03:49:49.462Z,99.99
2023-01-09T03:50:49.437Z,99.99
2023-01-09T03:52:10.291Z,99.99
2023-01-09T03:52:49.271Z,99.99
2023-01-09T03:53:49.213Z,99.99
2023-01-09T03:54:49.114Z,99.99
2023-01-09T03:55:49.051Z,99.99
2023-01-09T03:56:48.993Z,99.99
2023-01-09T03:57:48.973Z,99.99
2023-01-09T03:58:48.908Z,99.99
2023-01-09T03:59:48.836Z,99.99
2023-01-09T04:00:48.790Z,99.99
2023-01-09T04:01:48.902Z,99.99
2023-01-09T04:02:48.643Z,99.99
2023-01-09T04:03:48.629Z,99.99
2023-01-09T04:04:48.514Z,99.99
2023-01-09T04:05:48.483Z,99.99
2023-01-09T04:06:48.386Z,99.99
2023-01-09T04:07:48.297Z,99.99
2023-01-09T04:08:48.295Z,99.99
2023-01-09T04:10:09.151Z,99.99
2023-01-09T04:10:48.174Z,99.99
2023-01-09T04:11:48.105Z,99.99
2023-01-09T04:12:48.016Z,99.99
2023-01-09T04:13:47.905Z,99.99
2023-01-09T04:14:47.856Z,99.99
2023-01-09T04:15:47.814Z,99.99
2023-01-09T04:16:47.810Z,99.99
2023-01-09T04:17:47.660Z,99.99
2023-01-09T04:18:47.602Z,99.99
2023-01-09T04:19:47.601Z,99.99
2023-01-09T04:20:47.546Z,99.99
2023-01-09T04:21:47.449Z,99.99
2023-01-09T04:22:47.358Z,99.99
2023-01-09T04:23:47.319Z,99.99
2023-01-09T04:24:47.872Z,99.99
2023-01-09T04:25:47.149Z,99.99
2023-01-09T04:26:47.120Z,99.99
2023-01-09T04:27:49.293Z,99.99
2023-01-09T04:28:46.989Z,99.99
2023-01-09T04:29:46.910Z,99.99
2023-01-09T04:30:46.875Z,99.99
2023-01-09T04:31:46.896Z,99.99
2023-01-09T04:32:46.749Z,99.99
2023-01-09T04:33:46.728Z,99.99
2023-01-09T04:34:46.589Z,99.99
2023-01-09T04:35:46.503Z,99.99
2023-01-09T04:36:46.491Z,99.99
2023-01-09T04:37:46.425Z,99.99
2023-01-09T04:38:46.333Z,99.99
2023-01-09T04:39:46.284Z,99.99
2023-01-09T04:40:46.189Z,99.99
2023-01-09T04:41:46.180Z,99.99
2023-01-09T04:42:46.075Z,99.99
2023-01-09T04:43:46.048Z,99.99
2023-01-09T04:44:45.965Z,99.99
2023-01-09T04:45:45.945Z,99.99
2023-01-09T04:46:45.838Z,99.99
2023-01-09T04:47:45.798Z,99.99
2023-01-09T04:48:45.736Z,99.99
2023-01-09T04:49:45.642Z,99.99
2023-01-09T04:50:45.594Z,99.99
2023-01-09T04:51:45.551Z,99.99
2023-01-09T04:52:45.489Z,99.99
2023-01-09T04:53:45.397Z,99.99
2023-01-09T04:54:45.334Z,99.99
2023-01-09T04:55:45.291Z,99.99
2023-01-09T04:56:45.224Z,99.99
2023-01-09T04:57:45.446Z,99.99
2023-01-09T04:58:45.100Z,99.99
2023-01-09T04:59:45.053Z,99.99
2023-01-09T05:00:44.992Z,99.99
2023-01-09T05:01:45.010Z,99.99
2023-01-09T05:02:44.874Z,99.99
2023-01-09T05:03:45.103Z,99.99
2023-01-09T05:04:44.761Z,99.99
2023-01-09T05:05:44.660Z,99.99
2023-01-09T05:06:44.562Z,99.99
2023-01-09T05:07:44.529Z,99.99
2023-01-09T05:08:44.505Z,99.99
2023-01-09T05:09:44.415Z,99.99
2023-01-09T05:10:44.348Z,99.99
2023-01-09T05:11:44.290Z,99.99
2023-01-09T05:12:44.203Z,99.99
2023-01-09T05:13:44.175Z,99.99
2023-01-09T05:14:44.122Z,99.99
2023-01-09T05:15:44.048Z,99.99
2023-01-09T05:16:44.032Z,99.99
2023-01-09T05:17:43.896Z,99.99
2023-01-09T05:18:43.879Z,99.99
2023-01-09T05:19:43.789Z,99.99
2023-01-09T05:20:43.758Z,99.99
2023-01-09T05:24:22.246Z,99.99
2023-01-09T05:25:23.150Z,99.99
2023-01-09T05:26:23.108Z,99.99
2023-01-09T05:27:23.075Z,99.99
2023-01-09T05:28:22.992Z,99.99
2023-01-09T05:29:22.907Z,99.99
2023-01-09T05:30:22.846Z,99.99
2023-01-09T05:31:22.814Z,99.99
2023-01-09T05:32:22.724Z,99.99
2023-01-09T05:33:22.614Z,99.99
2023-01-09T05:34:22.560Z,99.93
2023-01-09T05:35:22.503Z,99.41
2023-01-09T05:36:22.464Z,99.41
2023-01-09T05:37:22.382Z,99.82
2023-01-09T05:38:22.380Z,99.93
2023-01-09T05:39:22.317Z,99.62
2023-01-09T05:40:24.821Z,99.72
2023-01-09T05:41:24.217Z,99.52
2023-01-09T05:42:22.129Z,99.41
2023-01-09T05:43:22.055Z,99.31
2023-01-09T05:44:21.912Z,99.10
2023-01-09T05:45:21.874Z,99.10
2023-01-09T05:46:21.805Z,99.31
2023-01-09T05:47:21.771Z,99.10
2023-01-09T05:48:21.714Z,98.58
2023-01-09T05:49:21.600Z,98.38
2023-01-09T05:50:21.586Z,98.79
2023-01-09T05:51:21.491Z,98.90
2023-01-09T05:52:21.424Z,98.58
2023-01-09T05:53:21.426Z,98.90
2023-01-09T05:54:21.331Z,98.90
2023-01-09T05:55:21.239Z,99.00
2023-01-09T05:56:21.201Z,98.79
2023-01-09T05:57:21.187Z,99.10
2023-01-09T05:58:21.019Z,98.79
2023-01-09T05:59:21.041Z,98.28
2023-01-09T06:00:20.950Z,98.07
2023-01-09T06:01:23.517Z,97.45
2023-01-09T06:02:21.005Z,97.45
2023-01-09T06:03:21.079Z,97.55
2023-01-09T06:04:20.700Z,98.18
2023-01-09T06:05:20.640Z,98.49
2023-01-09T06:06:20.543Z,98.79
2023-01-09T06:07:23.345Z,98.90
2023-01-09T06:08:20.405Z,99.00
2023-01-09T06:09:20.363Z,99.00
2023-01-09T06:10:20.319Z,99.41
2023-01-09T06:11:20.700Z,99.41
2023-01-09T06:12:20.202Z,99.21
2023-01-09T06:13:20.183Z,98.74
2023-01-09T06:14:20.088Z,98.32
2023-01-09T06:15:41.019Z,98.22
2023-01-09T06:16:19.997Z,98.43
2023-01-09T06:17:19.871Z,98.53
2023-01-09T06:18:19.788Z,98.43
2023-01-09T06:19:19.739Z,98.11
2023-01-09T06:20:19.663Z,98.22
2023-01-09T06:21:19.615Z,98.43
2023-01-09T06:22:19.599Z,97.91
2023-01-09T06:23:19.465Z,98.01
2023-01-09T06:24:19.430Z,98.53
2023-01-09T06:25:19.376Z,98.53
2023-01-09T06:26:19.309Z,98.74
2023-01-09T06:27:19.272Z,98.63
2023-01-09T06:28:19.217Z,98.47
2023-01-09T06:29:19.078Z,98.53
2023-01-09T06:30:19.016Z,98.78
2023-01-09T06:31:19.065Z,99.05
2023-01-09T06:32:20.142Z,99.35
2023-01-09T06:33:19.781Z,99.46
2023-01-09T06:34:19.585Z,99.56
2023-01-09T06:35:20.759Z,99.51
2023-01-09T06:36:22.250Z,99.82
2023-01-09T06:37:18.598Z,99.98
2023-01-09T06:38:18.501Z,99.99
2023-01-09T06:39:19.158Z,99.92
2023-01-09T06:40:18.449Z,99.92
2023-01-09T06:41:19.971Z,99.82
2023-01-09T06:42:22.689Z,99.71
2023-01-09T06:43:21.102Z,99.56
2023-01-09T06:44:50.882Z,99.46
2023-01-09T06:45:20.701Z,99.56
2023-01-09T06:46:19.787Z,99.35
2023-01-09T06:47:19.719Z,99.35
2023-01-09T06:48:17.905Z,99.25
2023-01-09T06:49:18.627Z,99.25
2023-01-09T06:50:17.759Z,99.25
2023-01-09T06:51:17.788Z,99.15
2023-01-09T06:52:17.614Z,99.25
2023-01-09T06:53:17.536Z,98.63
2023-01-09T06:54:17.481Z,98.53
2023-01-09T06:55:17.878Z,98.74
2023-01-09T06:56:17.373Z,98.63
2023-01-09T06:57:17.289Z,98.53
2023-01-09T06:58:17.297Z,98.53
2023-01-09T06:59:17.156Z,98.11
2023-01-09T07:00:17.081Z,98.32
2023-01-09T07:01:17.178Z,98.32
2023-01-09T07:02:17.684Z,98.22
2023-01-09T07:03:16.888Z,98.11
2023-01-09T07:04:17.780Z,98.01
2023-01-09T07:05:16.810Z,98.22
2023-01-09T07:06:16.684Z,98.22
2023-01-09T07:07:16.605Z,98.22
2023-01-09T07:08:16.627Z,98.11
2023-01-09T07:09:17.610Z,98.43
2023-01-09T07:10:16.452Z,98.32
2023-01-09T07:11:16.454Z,98.43
2023-01-09T07:12:16.339Z,98.94
2023-01-09T07:13:16.238Z,99.35
2023-01-09T07:14:16.233Z,99.25
2023-01-09T07:15:16.203Z,99.05
2023-01-09T07:16:16.165Z,99.25
2023-01-09T07:17:16.006Z,99.30
2023-01-09T07:18:15.930Z,99.09
2023-01-09T07:19:16.948Z,98.99
2023-01-09T07:20:15.786Z,98.88
2023-01-09T07:21:15.843Z,98.47
2023-01-09T07:22:16.636Z,98.47
2023-01-09T07:23:16.115Z,98.78
2023-01-09T07:24:15.548Z,98.99
2023-01-09T07:25:16.121Z,99.19
2023-01-09T07:26:15.427Z,98.88
2023-01-09T07:27:15.416Z,98.99
2023-01-09T07:28:15.472Z,98.57
2023-01-09T07:29:15.277Z,98.41
2023-01-09T07:30:15.165Z,98.21
2023-01-09T07:31:15.184Z,98.41
2023-01-09T07:32:15.159Z,98.72
2023-01-09T07:33:15.073Z,99.14
2023-01-09T07:34:14.940Z,99.04
2023-01-09T07:35:14.893Z,99.04
2023-01-09T07:36:14.845Z,99.04
2023-01-09T07:37:14.742Z,99.34
2023-01-09T07:38:14.672Z,99.34
2023-01-09T07:39:14.659Z,99.24
2023-01-09T07:40:14.522Z,99.34
2023-01-09T07:41:14.497Z,99.34
2023-01-09T07:42:14.436Z,99.55
2023-01-09T07:43:14.371Z,99.65
2023-01-09T07:44:14.333Z,99.51
2023-01-09T07:45:35.199Z,99.44
2023-01-09T07:46:14.254Z,99.34
2023-01-09T07:47:14.115Z,99.44
2023-01-09T07:48:14.039Z,99.34
2023-01-09T07:49:13.962Z,99.14
2023-01-09T07:50:13.953Z,99.14
2023-01-09T07:51:13.867Z,99.14
2023-01-09T07:52:13.823Z,98.83
2023-01-09T07:53:13.740Z,99.14
2023-01-09T07:54:13.644Z,99.04
2023-01-09T07:55:15.531Z,98.99
2023-01-09T07:56:13.590Z,98.88
2023-01-09T07:57:13.491Z,98.78
2023-01-09T07:58:13.441Z,98.27
2023-01-09T07:59:13.439Z,97.85
2023-01-09T08:00:13.297Z,97.85
2023-01-09T08:01:13.401Z,98.06
2023-01-09T08:02:13.185Z,98.37
2023-01-09T08:03:14.811Z,98.06
2023-01-09T08:04:13.126Z,97.54
2023-01-09T08:05:12.975Z,97.44
2023-01-09T08:06:13.608Z,97.64
2023-01-09T08:07:12.898Z,97.85
2023-01-09T08:08:12.773Z,97.96
2023-01-09T08:09:12.786Z,98.16
2023-01-09T08:10:13.679Z,98.32
2023-01-09T08:11:12.627Z,98.11
2023-01-09T08:12:16.857Z,97.81
2023-01-09T08:13:15.575Z,97.50
2023-01-09T08:14:12.390Z,97.08
2023-01-09T08:15:12.710Z,97.19
2023-01-09T08:16:12.303Z,96.98
2023-01-09T08:17:12.262Z,97.60
2023-01-09T08:18:12.108Z,98.01
2023-01-09T08:19:12.124Z,97.71
2023-01-09T08:20:11.978Z,97.60
2023-01-09T08:23:50.829Z,96.77
2023-01-09T08:24:51.712Z,96.56
2023-01-09T08:25:52.811Z,96.56
2023-01-09T08:26:55.230Z,96.88
2023-01-09T08:27:54.908Z,96.73
2023-01-09T08:28:50.927Z,96.21
2023-01-09T08:29:51.764Z,96.52
2023-01-09T08:30:51.857Z,96.31
2023-01-09T08:31:52.932Z,96.31
2023-01-09T08:32:50.762Z,96.11
2023-01-09T08:33:50.678Z,95.90
2023-01-09T08:34:50.638Z,96.01
2023-01-09T08:35:50.493Z,96.21
2023-01-09T08:36:52.481Z,95.80
2023-01-09T08:37:50.383Z,95.90
2023-01-09T08:40:01.902Z,96.31
2023-01-09T08:41:51.418Z,96.11
2023-01-09T08:42:00.965Z,95.80
2023-01-09T08:43:41.977Z,95.59
2023-01-09T08:44:03.496Z,95.70
2023-01-09T08:45:00.235Z,96.01
2023-01-09T08:46:00.167Z,95.59
2023-01-09T08:47:00.139Z,95.39
2023-01-09T08:48:00.089Z,95.28
2023-01-09T08:48:59.945Z,95.70
2023-01-09T08:49:59.896Z,95.70
2023-01-09T08:50:59.800Z,94.87
2023-01-09T08:51:59.772Z,95.70
2023-01-09T08:52:59.706Z,96.01
2023-01-09T08:53:59.641Z,95.28
2023-01-09T08:54:59.585Z,95.49
2023-01-09T08:55:59.566Z,95.49
2023-01-09T08:58:38.385Z,95.18
2023-01-09T08:59:39.275Z,95.18
2023-01-09T09:00:39.226Z,94.82
2023-01-09T09:01:39.227Z,94.77
2023-01-09T09:02:39.143Z,94.72
2023-01-09T09:03:39.017Z,94.82
2023-01-09T09:04:38.980Z,95.14
2023-01-09T09:05:38.940Z,95.45
2023-01-09T09:06:38.837Z,95.45
2023-01-09T09:07:38.799Z,95.14
2023-01-09T09:08:39.328Z,95.14
2023-01-09T09:09:38.673Z,94.10
2023-01-09T09:10:38.640Z,93.18
2023-01-09T09:11:38.544Z,94.00
2023-01-09T09:12:38.458Z,93.69
2023-01-09T09:13:38.434Z,93.49
2023-01-09T09:14:59.343Z,93.49
2023-01-09T09:15:38.453Z,93.59
2023-01-09T09:16:38.201Z,93.18
2023-01-09T09:17:38.209Z,93.18
2023-01-09T09:18:38.155Z,92.35
2023-01-09T09:19:38.005Z,92.04
2023-01-09T09:20:38.025Z,92.86
2023-01-09T09:21:37.948Z,92.04
2023-01-09T09:22:37.877Z,92.46
2023-01-09T09:23:37.793Z,92.21
2023-01-09T09:24:38.347Z,92.21
2023-01-09T09:25:37.671Z,91.79
2023-01-09T09:26:37.587Z,91.69
2023-01-09T09:27:37.565Z,91.79
2023-01-09T09:28:37.506Z,91.48
2023-01-09T09:29:37.401Z,91.28
2023-01-09T09:30:37.384Z,91.48
2023-01-09T09:31:37.367Z,91.38
2023-01-09T09:32:58.164Z,91.17
2023-01-09T09:33:37.183Z,91.38
2023-01-09T09:34:37.067Z,91.69
2023-01-09T09:35:37.038Z,91.79
2023-01-09T09:36:37.005Z,91.17
2023-01-09T09:37:36.919Z,91.48
2023-01-09T09:38:36.808Z,90.97
2023-01-09T09:39:36.776Z,91.54
2023-01-09T09:40:36.684Z,90.82
2023-01-09T09:41:36.653Z,90.51
2023-01-09T09:42:36.544Z,90.31
2023-01-09T09:43:36.524Z,90.00
2023-01-09T09:44:36.477Z,91.03
2023-01-09T09:45:36.395Z,91.34
2023-01-09T09:46:36.334Z,90.61
2023-01-09T09:47:36.272Z,90.41
2023-01-09T09:48:36.188Z,91.13
2023-01-09T09:49:36.156Z,90.51
2023-01-09T09:50:36.145Z,90.31
2023-01-09T09:51:35.973Z,90.10
2023-01-09T09:52:35.935Z,91.03
2023-01-09T09:53:36.834Z,91.17
2023-01-09T09:54:35.798Z,90.97
2023-01-09T09:55:35.782Z,90.86
2023-01-09T09:56:35.728Z,91.07
2023-01-09T09:57:35.654Z,90.66
2023-01-09T09:58:35.619Z,90.45
2023-01-09T09:59:35.524Z,90.14
2023-01-09T10:00:35.413Z,90.66
2023-01-09T10:01:35.375Z,91.17
2023-01-09T10:02:35.335Z,90.97
2023-01-09T10:03:35.316Z,91.17
2023-01-09T10:04:35.172Z,90.55
2023-01-09T10:05:35.115Z,90.25
2023-01-09T10:06:35.118Z,90.25
2023-01-09T10:07:35.061Z,90.25
2023-01-09T10:08:34.977Z,90.25
2023-01-09T10:09:34.853Z,90.66
2023-01-09T10:10:34.835Z,90.86
2023-01-09T10:11:34.822Z,90.45
2023-01-09T10:12:34.749Z,90.86
2023-01-09T10:13:34.611Z,90.86
2023-01-09T10:14:34.563Z,90.76
2023-01-09T10:15:36.000Z,90.41
2023-01-09T10:16:37.375Z,90.00
2023-01-09T10:17:39.596Z,89.79
2023-01-09T10:18:36.393Z,89.79
2023-01-09T10:19:36.328Z,89.28
2023-01-09T10:20:35.922Z,89.58
2023-01-09T10:21:35.963Z,89.13
2023-01-09T10:22:43.441Z,88.20
2023-01-09T10:24:14.267Z,88.06
2023-01-09T10:28:53.561Z,87.75
2023-01-09T10:29:54.527Z,87.54
2023-01-09T10:30:54.409Z,88.37
2023-01-09T10:31:54.369Z,88.43
2023-01-09T10:32:54.321Z,88.17
2023-01-09T10:33:54.299Z,87.44
2023-01-09T10:34:55.045Z,87.40
2023-01-09T10:35:54.158Z,87.09
2023-01-09T10:36:54.131Z,87.51
2023-01-09T10:37:54.034Z,87.51
2023-01-09T10:38:54.560Z,87.40
2023-01-09T10:39:53.857Z,88.12
2023-01-09T10:40:53.814Z,88.02
2023-01-09T10:41:53.808Z,88.12
2023-01-09T10:42:53.686Z,87.92
2023-01-09T10:43:53.619Z,87.40
2023-01-09T10:44:53.630Z,87.51
2023-01-09T10:46:14.658Z,87.40
2023-01-09T10:46:53.518Z,86.79
2023-01-09T10:47:53.333Z,87.30
2023-01-09T10:48:53.304Z,86.88
2023-01-09T10:49:53.244Z,87.30
2023-01-09T10:50:53.282Z,86.88
2023-01-09T10:51:53.708Z,87.30
2023-01-09T10:52:53.042Z,87.09
2023-01-09T10:53:52.993Z,86.99
2023-01-09T10:54:52.957Z,85.96
2023-01-09T10:55:52.900Z,85.75
2023-01-09T10:56:52.761Z,85.75
2023-01-09T10:57:52.732Z,86.06
2023-01-09T10:58:52.665Z,85.75
2023-01-09T10:59:52.642Z,85.03
2023-01-09T11:00:52.585Z,85.65
2023-01-09T11:01:52.498Z,86.06
2023-01-09T11:02:52.453Z,85.65
2023-01-09T11:04:13.331Z,85.96
2023-01-09T11:04:52.293Z,85.75
2023-01-09T11:05:52.242Z,85.75
2023-01-09T11:06:52.145Z,86.16
2023-01-09T11:07:52.104Z,86.58
2023-01-09T11:08:52.051Z,86.37
2023-01-09T11:09:52.257Z,85.55
2023-01-09T11:10:53.362Z,84.93
2023-01-09T11:11:52.882Z,86.27
2023-01-09T11:12:51.794Z,87.30
2023-01-09T11:13:51.730Z,86.68
2023-01-09T11:14:51.718Z,86.16
2023-01-09T11:15:51.620Z,86.79
2023-01-09T11:16:51.555Z,86.47
2023-01-09T11:17:51.468Z,85.55
2023-01-09T11:18:52.037Z,84.93
2023-01-09T11:19:51.310Z,85.03
2023-01-09T11:20:51.273Z,85.03
2023-01-09T11:21:52.106Z,84.21
2023-01-09T11:22:51.369Z,85.14
2023-01-09T11:23:51.219Z,85.34
2023-01-09T11:24:51.536Z,84.52
2023-01-09T11:25:53.561Z,85.34
2023-01-09T11:26:50.899Z,85.34
2023-01-09T11:27:50.821Z,85.34
2023-01-09T11:28:51.005Z,85.03
2023-01-09T11:29:51.644Z,85.07
2023-01-09T11:30:51.985Z,85.28
2023-01-09T11:31:50.672Z,85.49
2023-01-09T11:32:52.121Z,85.96
2023-01-09T11:33:53.057Z,85.44
2023-01-09T11:34:51.648Z,85.69
2023-01-09T11:35:56.345Z,85.44
2023-01-09T11:36:51.259Z,85.03
2023-01-09T11:37:50.193Z,85.07
2023-01-09T11:38:50.224Z,84.66
2023-01-09T11:39:50.159Z,85.38
2023-01-09T11:40:51.546Z,85.17
2023-01-09T11:41:51.494Z,85.59
2023-01-09T11:42:51.317Z,86.06
2023-01-09T11:43:51.271Z,85.75
2023-01-09T11:44:49.765Z,85.55
2023-01-09T11:46:00.465Z,85.55
2023-01-09T11:46:51.141Z,85.14
2023-01-09T11:47:49.553Z,85.75
2023-01-09T11:48:50.580Z,85.69
2023-01-09T11:49:51.304Z,86.31
2023-01-09T11:50:49.389Z,85.89
2023-01-09T11:51:49.613Z,86.10
2023-01-09T11:52:50.882Z,86.00
2023-01-09T11:53:50.048Z,85.49
2023-01-09T11:54:49.819Z,85.59
2023-01-09T11:55:49.111Z,85.59
2023-01-09T11:56:48.985Z,86.10
2023-01-09T11:58:09.929Z,86.61
2023-01-09T11:58:48.863Z,86.61
2023-01-09T11:59:50.569Z,86.72
2023-01-09T12:00:50.142Z,86.52
2023-01-09T12:01:48.705Z,85.69
2023-01-09T12:02:49.016Z,86.21
2023-01-09T12:03:48.659Z,86.52
2023-01-09T12:04:51.482Z,86.00
2023-01-09T12:05:50.846Z,86.31
2023-01-09T12:06:51.519Z,86.16
2023-01-09T12:07:50.051Z,85.86
2023-01-09T12:08:48.229Z,86.27
2023-01-09T12:09:48.200Z,86.61
2023-01-09T12:10:48.201Z,86.41
2023-01-09T12:11:48.084Z,86.06
2023-01-09T12:12:47.965Z,86.37
2023-01-09T12:13:47.918Z,86.58
2023-01-09T12:14:47.829Z,86.27
2023-01-09T12:16:09.599Z,86.79
2023-01-09T12:16:47.830Z,85.51
2023-01-09T12:17:47.715Z,86.43
2023-01-09T12:18:48.227Z,86.23
2023-01-09T12:19:47.560Z,86.33
2023-01-09T12:20:47.490Z,86.23
2023-01-09T12:21:47.412Z,86.33
2023-01-09T12:22:47.373Z,86.64
2023-01-09T12:23:47.381Z,86.95
2023-01-09T12:24:47.328Z,87.46
2023-01-09T12:25:47.219Z,86.33
2023-01-09T12:26:47.158Z,86.85
2023-01-09T12:27:47.062Z,87.15
2023-01-09T12:28:46.992Z,87.77
2023-01-09T12:29:46.930Z,87.57
2023-01-09T12:30:46.915Z,86.99
2023-01-09T12:31:46.887Z,87.15
2023-01-09T12:32:46.745Z,87.87
2023-01-09T12:35:25.575Z,87.77
2023-01-09T12:36:26.476Z,87.77
2023-01-09T12:37:26.448Z,87.67
2023-01-09T12:38:26.362Z,87.36
2023-01-09T12:39:26.321Z,87.87
2023-01-09T12:40:26.244Z,87.15
2023-01-09T12:41:26.180Z,87.46
2023-01-09T12:42:26.142Z,87.36
2023-01-09T12:43:26.107Z,88.29
2023-01-09T12:44:35.143Z,88.76
2023-01-09T12:45:25.974Z,88.56
2023-01-09T12:46:25.903Z,88.96
2023-01-09T12:47:25.831Z,88.51
2023-01-09T12:48:25.797Z,88.62
2023-01-09T12:49:25.748Z,87.96
2023-01-09T12:50:25.614Z,87.13
2023-01-09T12:51:25.604Z,86.72
2023-01-09T12:52:25.539Z,85.86
2023-01-09T12:53:25.450Z,85.76
2023-01-09T12:54:25.394Z,85.04
2023-01-09T12:55:25.324Z,84.12
2023-01-09T12:56:26.053Z,84.77
2023-01-09T12:57:25.192Z,84.88
2023-01-09T13:00:43.461Z,84.36
2023-01-09T13:01:44.454Z,85.39
2023-01-09T13:02:45.263Z,84.88
2023-01-09T13:03:44.242Z,84.77
2023-01-09T13:04:44.210Z,85.18
2023-01-09T13:05:44.180Z,85.28
2023-01-09T13:06:44.056Z,85.60
2023-01-09T13:07:44.030Z,85.33
2023-01-09T13:08:44.002Z,86.46
2023-01-09T13:09:43.899Z,86.56
2023-01-09T13:10:43.832Z,86.66
2023-01-09T13:11:43.788Z,86.60
2023-01-09T13:12:43.670Z,86.80